Time;durP1;ratioP1;P1;durP2;ratioP2;P2;SDS_P1;SDS_P2;PMS_P1;PMS_P2;Temp;Humidity;BMP_temperature;BMP_pressure;BME280_temperature;BME280_humidity;BME280_pressure;Samples;Min_cycle;Max_cycle;Signal;HPM_P1;HPM_P2
2022/08/08 00:00:10;;;;;;;8.30;1.23;;;18.20;99.90;;;;;;5052360;28;20185;-67
2022/08/08 00:02:36;;;;;;;3.00;1.20;;;18.20;99.90;;;;;;5052609;28;20178;-68
2022/08/08 00:05:23;;;;;;;7.55;1.40;;;18.30;99.90;;;;;;5052644;28;20231;-68
2022/08/08 00:08:22;;;;;;;9.25;1.33;;;18.20;99.90;;;;;;5052657;28;20177;-68
2022/08/08 00:11:26;;;;;;;7.68;1.30;;;18.30;99.90;;;;;;5052651;28;20177;-68
2022/08/08 00:14:11;;;;;;;4.82;1.70;;;18.30;99.90;;;;;;5051213;28;20207;-67
2022/08/08 00:16:44;;;;;;;3.67;1.10;;;18.30;99.90;;;;;;5052322;28;20654;-67
2022/08/08 00:19:21;;;;;;;7.20;1.55;;;18.30;99.90;;;;;;5051159;28;20185;-68
2022/08/08 00:21:55;;;;;;;8.40;1.15;;;18.20;99.90;;;;;;5052382;28;20581;-68
2022/08/08 00:24:35;;;;;;;4.10;1.50;;;18.20;99.90;;;;;;5052311;28;20169;-66
2022/08/08 00:27:06;;;;;;;4.50;1.20;;;18.10;99.90;;;;;;5052152;28;20177;-67
2022/08/08 00:29:38;;;;;;;4.72;1.40;;;18.10;99.90;;;;;;5052282;28;20177;-68
2022/08/08 00:32:10;;;;;;;4.10;1.48;;;18.00;99.90;;;;;;5052080;28;20258;-68
2022/08/08 00:35:13;;;;;;;6.28;1.17;;;18.10;99.90;;;;;;5052136;28;20252;-67
2022/08/08 00:38:03;;;;;;;4.22;1.35;;;18.10;99.90;;;;;;5052027;28;20177;-66
2022/08/08 00:40:28;;;;;;;6.38;1.38;;;18.00;99.90;;;;;;5051889;28;20385;-68
2022/08/08 00:43:03;;;;;;;4.00;1.40;;;18.00;99.90;;;;;;5051965;28;20184;-67
2022/08/08 00:45:46;;;;;;;2.97;1.25;;;18.00;99.90;;;;;;5052048;28;20191;-67
2022/08/08 00:48:27;;;;;;;3.63;1.45;;;18.00;99.90;;;;;;5051971;28;20180;-67
2022/08/08 00:51:08;;;;;;;4.78;1.50;;;18.00;99.90;;;;;;5051736;28;20192;-68
2022/08/08 00:53:43;;;;;;;6.22;1.50;;;17.90;99.90;;;;;;5051882;28;20552;-68
2022/08/08 00:56:17;;;;;;;4.10;1.48;;;17.90;99.90;;;;;;5051707;28;20196;-68
2022/08/08 00:59:21;;;;;;;4.20;1.23;;;17.80;99.90;;;;;;5051715;28;20173;-67
2022/08/08 01:02:18;;;;;;;7.07;1.30;;;17.80;99.90;;;;;;5051637;28;20169;-68
2022/08/08 01:04:47;;;;;;;8.88;1.52;;;17.60;99.90;;;;;;5051556;28;20628;-68
2022/08/08 01:07:50;;;;;;;4.95;1.20;;;17.60;99.90;;;;;;5051505;28;20575;-68
2022/08/08 01:10:28;;;;;;;6.32;1.17;;;18.20;99.90;;;;;;5050134;28;20668;-69
2022/08/08 01:12:54;;;;;;;3.75;1.30;;;17.50;99.90;;;;;;5051266;28;20217;-68
2022/08/08 01:15:44;;;;;;;5.18;1.30;;;17.50;99.90;;;;;;5049990;28;20185;-68
2022/08/08 01:18:25;;;;;;;3.13;1.38;;;17.50;99.90;;;;;;5051254;28;20694;-68
2022/08/08 01:21:09;;;;;;;8.70;2.03;;;17.50;99.90;;;;;;5049900;28;20222;-68
2022/08/08 01:23:53;;;;;;;6.95;1.50;;;17.40;99.90;;;;;;5051162;28;20165;-68
2022/08/08 01:26:27;;;;;;;3.88;1.45;;;17.40;99.90;;;;;;5051168;28;20173;-68
2022/08/08 01:29:04;;;;;;;5.35;1.63;;;17.40;99.90;;;;;;5051031;28;20666;-68
2022/08/08 01:31:52;;;;;;;6.55;1.35;;;17.30;99.90;;;;;;5050988;28;20254;-67
2022/08/08 01:34:45;;;;;;;2.67;1.20;;;17.20;99.90;;;;;;5051107;28;20184;-67
2022/08/08 01:37:14;;;;;;;7.82;1.50;;;17.20;99.90;;;;;;5049718;28;20636;-67
2022/08/08 01:40:01;;;;;;;6.38;1.30;;;17.20;99.90;;;;;;5050794;28;20224;-66
2022/08/08 01:42:50;;;;;;;4.95;1.50;;;17.20;99.90;;;;;;5050937;28;20660;-69
2022/08/08 01:45:46;;;;;;;7.10;1.45;;;17.20;99.90;;;;;;5049723;28;20200;-69
2022/08/08 01:48:43;;;;;;;5.35;1.50;;;17.10;99.90;;;;;;5050851;28;20224;-68
2022/08/08 01:51:43;;;;;;;4.47;1.55;;;17.10;99.90;;;;;;5050848;28;20193;-67
2022/08/08 01:54:14;;;;;;;7.75;1.58;;;17.00;99.90;;;;;;5050850;28;20169;-67
2022/08/08 01:56:58;;;;;;;5.00;1.60;;;17.00;99.90;;;;;;5050823;28;20177;-67
2022/08/08 01:59:41;;;;;;;3.45;1.40;;;16.90;99.90;;;;;;5050733;28;20599;-67
2022/08/08 02:02:26;;;;;;;5.70;1.55;;;16.90;99.90;;;;;;5050759;28;20651;-67
2022/08/08 02:05:13;;;;;;;4.50;1.45;;;16.90;99.90;;;;;;5050768;28;20188;-68
2022/08/08 02:07:57;;;;;;;3.78;1.40;;;16.80;99.90;;;;;;5050921;28;20254;-68
2022/08/08 02:10:41;;;;;;;3.30;1.50;;;16.80;99.90;;;;;;5050619;28;20180;-68
2022/08/08 02:13:36;;;;;;;5.07;1.35;;;16.70;99.90;;;;;;5050535;28;20208;-67
2022/08/08 02:16:21;;;;;;;4.63;1.63;;;16.60;99.90;;;;;;5049332;28;20209;-68
2022/08/08 02:19:12;;;;;;;6.28;1.75;;;16.60;99.90;;;;;;5050559;28;20165;-67
2022/08/08 02:24:57;;;;;;;4.22;1.48;;;16.60;99.90;;;;;;5050436;28;20184;-69
2022/08/08 02:27:37;;;;;;;3.63;1.20;;;16.60;99.90;;;;;;5050446;28;20169;-68
2022/08/08 02:30:06;;;;;;;3.67;1.27;;;16.60;99.90;;;;;;5050314;28;20173;-68
2022/08/08 02:32:59;;;;;;;4.90;1.80;;;16.50;99.90;;;;;;5052288;28;20571;-68
2022/08/08 02:35:36;;;;;;;5.90;1.67;;;16.50;99.90;;;;;;5054428;28;20192;-68
2022/08/08 02:38:11;;;;;;;3.95;1.60;;;16.50;99.90;;;;;;5054407;28;20173;-68
2022/08/08 02:41:05;;;;;;;5.63;1.90;;;16.50;99.90;;;;;;5054166;28;20742;-67
2022/08/08 02:43:58;;;;;;;11.25;1.60;;;16.40;99.90;;;;;;5054244;28;20180;-68
2022/08/08 02:46:45;;;;;;;6.57;1.60;;;16.40;99.90;;;;;;5054193;28;20219;-68
2022/08/08 02:49:32;;;;;;;5.07;1.73;;;16.30;99.90;;;;;;5054176;28;20636;-68
2022/08/08 02:52:23;;;;;;;3.85;1.85;;;16.30;99.90;;;;;;5053962;28;20201;-68
2022/08/08 02:55:03;;;;;;;7.15;1.73;;;16.20;99.90;;;;;;5053870;28;20184;-67
2022/08/08 02:57:48;;;;;;;4.85;1.60;;;16.20;99.90;;;;;;5052957;28;20169;-69
2022/08/08 03:00:14;;;;;;;5.95;1.90;;;16.20;99.90;;;;;;5053915;28;20169;-68
2022/08/08 03:03:08;;;;;;;5.70;1.83;;;16.20;99.90;;;;;;5053866;28;20181;-68
2022/08/08 03:05:56;;;;;;;2.80;1.50;;;16.10;99.90;;;;;;5053818;28;20177;-67
2022/08/08 03:08:49;;;;;;;5.85;1.80;;;16.00;99.90;;;;;;5053754;28;20279;-69
2022/08/08 03:11:37;;;;;;;8.23;1.85;;;16.00;99.90;;;;;;5053518;28;20209;-67
2022/08/08 03:14:38;;;;;;;8.57;2.00;;;16.00;99.90;;;;;;5053898;28;20211;-68
2022/08/08 03:17:36;;;;;;;4.68;2.15;;;15.90;99.90;;;;;;5052401;28;20191;-68
2022/08/08 03:20:05;;;;;;;8.93;2.00;;;15.90;99.90;;;;;;5052246;28;20259;-67
2022/08/08 03:22:33;;;;;;;1.85;1.50;;;16.00;99.90;;;;;;5053395;28;20180;-68
2022/08/08 03:25:03;;;;;;;7.68;1.70;;;16.00;99.90;;;;;;5053420;28;20244;-66
2022/08/08 03:27:34;;;;;;;3.88;1.75;;;16.10;99.90;;;;;;5053427;28;20173;-67
2022/08/08 03:30:11;;;;;;;5.43;1.88;;;16.10;99.90;;;;;;5053349;28;20173;-68
2022/08/08 03:35:24;;;;;;;4.68;1.77;;;16.00;99.90;;;;;;5053669;28;20172;-68
2022/08/08 03:37:50;;;;;;;6.60;1.80;;;15.90;99.90;;;;;;5053547;28;20215;-67
2022/08/08 03:40:19;;;;;;;5.88;1.98;;;15.90;99.90;;;;;;5053088;28;20208;-68
2022/08/08 03:42:45;;;;;;;5.72;1.85;;;15.90;99.90;;;;;;5052913;28;20173;-67
2022/08/08 03:45:22;;;;;;;8.13;1.92;;;15.90;99.90;;;;;;5052145;28;20161;-67
2022/08/08 03:48:04;;;;;;;16.08;2.03;;;15.80;99.90;;;;;;5053011;28;20181;-67
2022/08/08 03:50:31;;;;;;;6.20;1.90;;;15.70;99.90;;;;;;5053156;28;20188;-68
2022/08/08 03:53:17;;;;;;;7.50;1.88;;;15.60;99.90;;;;;;5052878;28;20228;-67
2022/08/08 03:55:45;;;;;;;5.45;2.20;;;15.50;99.90;;;;;;5053103;28;20174;-68
2022/08/08 03:58:24;;;;;;;6.20;1.80;;;15.60;99.90;;;;;;5052726;28;20175;-67
2022/08/08 04:00:52;;;;;;;6.15;1.90;;;15.50;99.90;;;;;;5052638;28;20176;-68
2022/08/08 04:03:19;;;;;;;6.97;2.38;;;15.50;99.90;;;;;;5052730;28;20624;-68
2022/08/08 04:05:45;;;;;;;3.42;1.90;;;15.50;99.90;;;;;;5052691;28;20173;-67
2022/08/08 04:08:20;;;;;;;4.90;2.33;;;15.40;99.90;;;;;;5052539;28;20714;-68
2022/08/08 04:10:52;;;;;;;6.70;1.90;;;15.30;99.90;;;;;;5052587;28;20164;-68
2022/08/08 04:13:19;;;;;;;4.07;1.83;;;15.30;99.90;;;;;;5052456;28;20196;-67
2022/08/08 04:15:46;;;;;;;2.90;1.92;;;15.30;99.90;;;;;;5052391;28;20640;-67
2022/08/08 04:18:11;;;;;;;5.72;2.05;;;15.30;99.90;;;;;;5052504;28;20178;-68
2022/08/08 04:20:37;;;;;;;5.25;1.88;;;15.30;99.90;;;;;;5051043;28;20256;-66
2022/08/08 04:23:04;;;;;;;5.47;2.15;;;15.40;99.90;;;;;;5052237;28;20173;-67
2022/08/08 04:25:31;;;;;;;6.18;1.95;;;15.40;99.90;;;;;;5052268;28;20615;-67
2022/08/08 04:27:56;;;;;;;8.23;2.08;;;15.30;99.90;;;;;;5052261;28;20694;-67
2022/08/08 04:30:22;;;;;;;6.05;2.53;;;15.30;99.90;;;;;;5052685;28;20177;-67
2022/08/08 04:32:48;;;;;;;7.55;2.15;;;15.20;99.90;;;;;;5052056;28;20214;-67
2022/08/08 04:35:13;;;;;;;5.88;2.55;;;15.20;99.90;;;;;;5050797;28;20223;-68
2022/08/08 04:37:39;;;;;;;5.32;2.25;;;15.10;99.90;;;;;;5052057;28;20173;-67
2022/08/08 04:40:05;;;;;;;9.13;2.50;;;15.10;99.90;;;;;;5050526;28;20303;-68
2022/08/08 04:42:32;;;;;;;4.53;2.22;;;15.10;99.90;;;;;;5051934;28;20246;-67
2022/08/08 04:44:59;;;;;;;5.93;2.28;;;15.10;99.90;;;;;;5051706;28;20177;-68
2022/08/08 04:47:25;;;;;;;5.38;2.30;;;15.10;99.90;;;;;;5051871;28;20181;-67
2022/08/08 04:49:51;;;;;;;4.22;2.05;;;15.10;99.90;;;;;;5051851;28;20165;-67
2022/08/08 04:52:17;;;;;;;8.40;2.88;;;15.10;99.90;;;;;;5051985;28;20205;-69
2022/08/08 04:54:42;;;;;;;8.52;2.42;;;15.20;99.90;;;;;;5051674;28;20165;-68
2022/08/08 04:57:09;;;;;;;7.25;2.28;;;15.10;99.90;;;;;;5051910;28;20215;-67
2022/08/08 04:59:34;;;;;;;4.13;2.22;;;15.10;99.90;;;;;;5051830;28;20173;-68
2022/08/08 05:02:00;;;;;;;7.50;2.55;;;15.00;99.90;;;;;;5050370;28;20228;-68
2022/08/08 05:04:25;;;;;;;4.72;2.30;;;15.00;99.90;;;;;;5051599;28;20157;-68
2022/08/08 05:06:51;;;;;;;4.35;2.17;;;15.00;99.90;;;;;;5051494;28;20636;-68
2022/08/08 05:09:17;;;;;;;5.20;2.38;;;15.00;99.90;;;;;;5051379;28;20265;-67
2022/08/08 05:11:43;;;;;;;6.78;2.45;;;15.00;99.90;;;;;;5051511;28;20292;-67
2022/08/08 05:14:10;;;;;;;9.30;2.58;;;15.00;99.90;;;;;;5051427;28;20173;-67
2022/08/08 05:16:36;;;;;;;4.90;2.60;;;15.00;99.90;;;;;;5051322;28;20643;-67
2022/08/08 05:19:02;;;;;;;6.88;2.33;;;15.00;99.90;;;;;;5049910;28;20223;-67
2022/08/08 05:21:28;;;;;;;8.25;2.60;;;15.10;99.90;;;;;;5051256;28;20176;-67
2022/08/08 05:23:54;;;;;;;7.60;2.42;;;15.10;99.90;;;;;;5051369;28;20264;-68
2022/08/08 05:26:22;;;;;;;9.65;2.42;;;15.10;99.90;;;;;;5049874;28;20643;-67
2022/08/08 05:28:48;;;;;;;8.95;2.92;;;15.10;99.90;;;;;;5051093;28;20169;-68
2022/08/08 05:31:14;;;;;;;10.13;2.70;;;15.10;99.90;;;;;;5050984;28;20617;-67
2022/08/08 05:33:40;;;;;;;8.00;2.80;;;15.10;99.90;;;;;;5051174;28;20182;-67
2022/08/08 05:36:08;;;;;;;11.77;3.08;;;15.20;99.90;;;;;;5049755;28;20177;-67
2022/08/08 05:38:40;;;;;;;9.85;2.70;;;15.20;99.90;;;;;;5050992;28;20189;-67
2022/08/08 05:41:06;;;;;;;5.70;2.80;;;15.20;99.90;;;;;;5050814;28;20213;-67
2022/08/08 05:43:33;;;;;;;9.63;2.45;;;15.20;99.90;;;;;;5050751;28;20661;-67
2022/08/08 05:46:02;;;;;;;12.68;2.83;;;15.30;99.90;;;;;;5050781;28;20652;-67
2022/08/08 05:48:28;;;;;;;7.60;3.00;;;15.30;99.90;;;;;;5049676;28;20179;-68
2022/08/08 05:50:54;;;;;;;8.77;2.60;;;15.30;99.90;;;;;;5051114;28;20628;-67
2022/08/08 05:53:24;;;;;;;8.18;3.10;;;15.30;99.90;;;;;;5050789;28;20188;-68
2022/08/08 05:55:55;;;;;;;11.80;2.97;;;15.40;99.90;;;;;;5050658;28;20170;-67
2022/08/08 05:58:28;;;;;;;6.45;2.88;;;15.50;99.90;;;;;;5050852;28;20177;-66
2022/08/08 06:00:58;;;;;;;12.45;3.53;;;15.50;99.90;;;;;;5050717;28;20420;-67
2022/08/08 06:03:25;;;;;;;11.15;3.22;;;15.50;99.90;;;;;;5050656;28;20185;-67
2022/08/08 06:06:05;;;;;;;7.90;3.55;;;15.50;99.90;;;;;;5050580;28;20169;-67
2022/08/08 06:08:49;;;;;;;12.07;3.83;;;15.60;99.90;;;;;;5050105;28;20181;-67
2022/08/08 06:11:15;;;;;;;9.10;3.13;;;15.70;99.90;;;;;;5050679;28;20243;-67
2022/08/08 06:13:40;;;;;;;9.57;2.88;;;15.70;99.90;;;;;;5050601;28;20651;-67
2022/08/08 06:16:09;;;;;;;7.72;3.15;;;15.80;99.90;;;;;;5050647;28;20184;-67
2022/08/08 06:18:36;;;;;;;7.28;2.97;;;15.70;99.90;;;;;;5050522;28;20174;-67
2022/08/08 06:21:03;;;;;;;9.60;3.58;;;15.80;99.90;;;;;;5049247;28;20170;-67
2022/08/08 06:23:28;;;;;;;10.73;3.50;;;15.90;99.90;;;;;;5049465;28;20181;-67
2022/08/08 06:26:06;;;;;;;9.73;3.42;;;16.00;99.90;;;;;;5050636;28;20226;-66
2022/08/08 06:28:38;;;;;;;10.10;3.17;;;16.10;99.90;;;;;;5050377;28;20751;-66
2022/08/08 06:31:09;;;;;;;8.77;3.05;;;16.20;99.90;;;;;;5050211;28;20169;-67
2022/08/08 06:33:56;;;;;;;6.63;3.42;;;16.30;99.90;;;;;;5050344;28;20203;-66
2022/08/08 06:36:34;;;;;;;7.07;2.90;;;16.40;99.90;;;;;;5050309;28;20212;-67
2022/08/08 06:39:01;;;;;;;7.20;3.10;;;16.40;99.90;;;;;;5050263;28;20216;-66
2022/08/08 06:41:32;;;;;;;10.98;3.17;;;16.50;99.90;;;;;;5050556;28;20170;-67
2022/08/08 06:44:01;;;;;;;9.30;3.28;;;16.60;99.90;;;;;;5050365;28;20223;-68
2022/08/08 06:46:27;;;;;;;13.90;4.00;;;16.70;99.90;;;;;;5050913;28;20238;-65
2022/08/08 06:48:54;;;;;;;11.55;3.08;;;16.80;99.90;;;;;;5050139;28;20244;-67
2022/08/08 06:51:21;;;;;;;9.05;3.10;;;16.80;99.90;;;;;;5048793;28;20603;-66
2022/08/08 06:53:47;;;;;;;14.73;3.35;;;16.90;99.90;;;;;;5050047;28;20169;-66
2022/08/08 06:56:13;;;;;;;12.38;3.15;;;17.00;99.90;;;;;;5050028;28;20197;-65
2022/08/08 06:58:39;;;;;;;9.18;3.08;;;17.00;99.90;;;;;;5050087;28;20177;-66
2022/08/08 07:01:07;;;;;;;12.18;3.50;;;17.10;99.90;;;;;;5050181;28;20288;-67
2022/08/08 07:03:38;;;;;;;13.88;3.60;;;17.20;99.90;;;;;;5049898;28;20166;-67
2022/08/08 07:06:08;;;;;;;13.15;3.25;;;17.30;99.90;;;;;;5049932;28;20181;-67
2022/08/08 07:08:37;;;;;;;12.13;2.90;;;17.30;99.90;;;;;;5050165;28;20173;-66
2022/08/08 07:11:05;;;;;;;11.10;3.22;;;17.40;99.90;;;;;;5049894;28;20165;-66
2022/08/08 07:13:40;;;;;;;10.30;3.20;;;17.50;99.90;;;;;;5050269;28;20177;-67
2022/08/08 07:16:11;;;;;;;13.13;2.90;;;17.60;99.90;;;;;;5050407;28;20671;-67
2022/08/08 07:18:43;;;;;;;9.05;3.20;;;17.60;99.90;;;;;;5051678;28;20181;-66
2022/08/08 07:21:16;;;;;;;12.63;3.38;;;17.70;99.90;;;;;;5053474;28;20211;-67
2022/08/08 07:24:02;;;;;;;8.27;2.83;;;17.70;99.90;;;;;;5053759;28;20212;-67
2022/08/08 07:26:31;;;;;;;12.25;3.33;;;17.80;99.90;;;;;;5053603;28;20205;-68
2022/08/08 07:28:58;;;;;;;16.10;3.00;;;17.90;99.90;;;;;;5053323;28;20171;-67
2022/08/08 07:31:24;;;;;;;17.80;3.17;;;17.90;99.90;;;;;;5053274;28;20201;-67
2022/08/08 07:33:51;;;;;;;14.20;3.10;;;18.00;99.90;;;;;;5051949;28;20177;-65
2022/08/08 07:36:18;;;;;;;15.43;3.53;;;18.10;99.90;;;;;;5053250;28;20165;-67
2022/08/08 07:38:47;;;;;;;16.17;3.42;;;18.20;99.90;;;;;;5053350;28;20239;-67
2022/08/08 07:41:15;;;;;;;13.50;3.15;;;18.20;99.90;;;;;;5052921;28;20225;-67
2022/08/08 07:43:42;;;;;;;12.20;3.20;;;18.30;99.90;;;;;;5053022;28;20724;-67
2022/08/08 07:46:08;;;;;;;13.13;3.30;;;18.40;99.90;;;;;;5053204;28;20164;-67
2022/08/08 07:48:33;;;;;;;12.70;2.92;;;18.50;99.90;;;;;;5053136;28;20662;-66
2022/08/08 07:51:01;;;;;;;9.80;2.85;;;18.50;99.90;;;;;;5052987;28;20693;-66
2022/08/08 07:53:40;;;;;;;8.60;3.00;;;18.50;99.90;;;;;;5052924;28;20173;-65
2022/08/08 07:56:09;;;;;;;11.73;3.30;;;18.70;99.90;;;;;;5052954;28;20191;-66
2022/08/08 07:58:41;;;;;;;9.00;3.10;;;18.70;99.90;;;;;;5053310;28;20177;-67
2022/08/08 08:01:12;;;;;;;7.57;2.65;;;18.80;99.90;;;;;;5053267;28;20219;-67
2022/08/08 08:04:02;;;;;;;11.75;3.15;;;18.90;99.90;;;;;;5053193;28;20181;-67
2022/08/08 08:06:32;;;;;;;7.32;2.80;;;19.00;99.90;;;;;;5048658;28;20543;-67
2022/08/08 08:09:23;;;;;;;9.73;2.95;;;19.00;99.90;;;;;;5052624;28;20263;-66
2022/08/08 08:11:50;;;;;;;7.20;2.80;;;19.20;99.90;;;;;;5052347;28;20213;-67
2022/08/08 08:14:51;;;;;;;13.45;3.67;;;19.20;99.90;;;;;;5052416;28;20662;-67
2022/08/08 08:17:18;;;;;;;9.23;3.33;;;19.50;99.90;;;;;;5051282;28;20247;-67
2022/08/08 08:19:48;;;;;;;11.98;2.88;;;19.60;99.90;;;;;;5052835;28;20181;-66
2022/08/08 08:22:15;;;;;;;11.27;2.90;;;19.60;99.90;;;;;;5052292;28;20165;-67
2022/08/08 08:24:43;;;;;;;12.18;3.65;;;19.80;99.90;;;;;;5052116;28;20173;-66
2022/08/08 08:27:09;;;;;;;8.98;2.72;;;20.00;99.90;;;;;;5050708;28;20196;-67
2022/08/08 08:29:35;;;;;;;11.85;3.53;;;20.10;99.90;;;;;;5051678;28;20170;-67
2022/08/08 08:32:01;;;;;;;12.70;2.97;;;20.80;99.90;;;;;;5051775;28;20212;-66
2022/08/08 08:34:26;;;;;;;12.60;2.92;;;22.30;99.90;;;;;;5051930;28;20201;-65
2022/08/08 08:36:52;;;;;;;9.43;2.47;;;23.20;99.90;;;;;;5052121;28;20176;-66
2022/08/08 08:39:17;;;;;;;4.65;2.33;;;24.00;99.90;;;;;;5051999;28;20223;-67
2022/08/08 08:41:44;;;;;;;7.20;2.70;;;25.00;99.90;;;;;;5052247;28;20648;-66
2022/08/08 08:44:12;;;;;;;13.98;2.95;;;25.50;99.90;;;;;;5052464;28;20251;-66
2022/08/08 08:46:39;;;;;;;12.88;2.50;;;26.00;99.90;;;;;;5051911;28;20637;-66
2022/08/08 08:49:05;;;;;;;8.35;2.60;;;26.70;99.90;;;;;;5051824;28;20170;-67
2022/08/08 08:51:34;;;;;;;8.68;2.60;;;27.00;99.90;;;;;;5051872;28;20208;-67
2022/08/08 08:54:02;;;;;;;10.88;2.30;;;27.00;99.90;;;;;;5052047;28;20181;-67
2022/08/08 08:56:28;;;;;;;9.80;2.65;;;25.70;99.90;;;;;;5052094;28;20181;-66
2022/08/08 08:58:56;;;;;;;7.63;2.55;;;25.60;99.90;;;;;;5051755;28;20176;-66
2022/08/08 09:01:25;;;;;;;5.75;2.10;;;25.80;99.90;;;;;;5051714;28;20188;-66
2022/08/08 09:03:54;;;;;;;6.85;2.22;;;26.30;99.90;;;;;;5051554;28;20172;-67
2022/08/08 09:06:29;;;;;;;15.30;2.80;;;26.40;99.90;;;;;;5050360;28;20631;-66
2022/08/08 09:09:08;;;;;;;11.85;2.55;;;27.10;99.90;;;;;;5051642;28;20177;-66
2022/08/08 09:11:34;;;;;;;8.85;2.65;;;26.40;99.90;;;;;;5051345;28;20711;-66
2022/08/08 09:14:06;;;;;;;9.93;2.40;;;25.70;99.90;;;;;;5051467;28;20169;-66
2022/08/08 09:16:32;;;;;;;8.43;2.45;;;25.80;99.90;;;;;;5051475;28;20165;-66
2022/08/08 09:18:57;;;;;;;9.60;2.60;;;26.10;99.90;;;;;;5051447;28;20218;-66
2022/08/08 09:21:23;;;;;;;7.55;2.50;;;26.10;99.90;;;;;;5051306;28;20636;-66
2022/08/08 09:23:49;;;;;;;10.73;2.40;;;25.20;99.90;;;;;;5051241;28;20170;-66
2022/08/08 09:26:52;;;;;;;10.82;2.38;;;24.80;99.90;;;;;;5051321;28;20177;-66
2022/08/08 09:29:25;;;;;;;4.68;2.08;;;25.30;99.90;;;;;;5051226;28;20177;-65
2022/08/08 09:31:54;;;;;;;6.22;2.20;;;25.90;99.90;;;;;;5051252;28;20213;-66
2022/08/08 09:34:22;;;;;;;7.78;2.58;;;26.00;99.90;;;;;;5049748;28;20173;-66
2022/08/08 09:36:50;;;;;;;9.80;2.60;;;26.10;99.90;;;;;;5050989;28;20199;-66
2022/08/08 09:39:20;;;;;;;8.98;2.30;;;26.20;99.90;;;;;;5050791;28;20209;-66
2022/08/08 09:41:59;;;;;;;20.52;2.70;;;25.90;99.90;;;;;;5050040;28;20227;-66
2022/08/08 09:45:03;;;;;;;10.50;2.30;;;26.50;99.90;;;;;;5050892;28;20192;-66
2022/08/08 09:47:32;;;;;;;4.18;1.95;;;26.60;99.90;;;;;;5050430;28;20184;-66
2022/08/08 09:50:01;;;;;;;9.00;2.20;;;27.00;99.90;;;;;;5050856;28;20613;-66
2022/08/08 09:52:32;;;;;;;12.40;2.40;;;27.20;99.90;;;;;;5050715;28;20694;-66
2022/08/08 09:54:58;;;;;;;10.48;2.20;;;27.30;99.90;;;;;;5050821;28;20190;-65
2022/08/08 09:57:35;;;;;;;8.55;2.10;;;27.60;99.90;;;;;;5050863;28;20173;-65
2022/08/08 10:00:10;;;;;;;9.45;2.85;;;27.50;99.90;;;;;;5050648;28;20167;-65
2022/08/08 10:02:38;;;;;;;12.77;2.72;;;27.20;99.90;;;;;;5050880;28;20298;-65
2022/08/08 10:05:07;;;;;;;8.85;2.10;;;27.60;99.90;;;;;;5050661;28;20703;-65
2022/08/08 10:07:33;;;;;;;9.68;2.08;;;27.70;99.90;;;;;;5050693;28;20169;-65
2022/08/08 10:09:59;;;;;;;6.85;2.10;;;27.90;99.90;;;;;;5050525;28;20192;-65
2022/08/08 10:12:36;;;;;;;13.27;3.58;;;27.80;99.90;;;;;;5050433;28;20684;-66
2022/08/08 10:15:05;;;;;;;12.88;3.00;;;28.00;99.90;;;;;;5050484;28;20180;-65
2022/08/08 10:17:41;;;;;;;7.85;2.20;;;28.50;99.90;;;;;;5050736;28;20169;-65
2022/08/08 10:20:08;;;;;;;9.65;1.92;;;28.50;99.90;;;;;;5050581;28;20176;-65
2022/08/08 10:22:39;;;;;;;7.60;2.00;;;28.00;99.90;;;;;;5050463;28;20237;-66
2022/08/08 10:25:06;;;;;;;12.23;2.00;;;28.40;99.90;;;;;;5050679;28;20204;-66
2022/08/08 10:27:42;;;;;;;5.57;2.10;;;29.10;99.90;;;;;;5050537;28;20180;-67
2022/08/08 10:30:09;;;;;;;6.88;1.90;;;29.70;99.90;;;;;;5050527;28;20173;-65
2022/08/08 10:32:41;;;;;;;8.07;2.25;;;29.00;99.90;;;;;;5050316;28;20741;-67
2022/08/08 10:35:15;;;;;;;8.52;1.95;;;29.40;99.90;;;;;;5050348;28;20176;-67
2022/08/08 10:38:00;;;;;;;10.23;1.63;;;30.60;99.90;;;;;;5050249;28;20170;-66
2022/08/08 10:40:28;;;;;;;6.43;1.90;;;31.40;99.90;;;;;;5050070;28;20246;-66
2022/08/08 10:42:59;;;;;;;7.45;1.70;;;32.00;99.90;;;;;;5050142;28;20177;-66
2022/08/08 10:45:26;;;;;;;11.55;1.70;;;32.40;99.90;;;;;;5050337;28;20276;-67
2022/08/08 10:48:00;;;;;;;7.20;1.55;;;32.80;99.90;;;;;;5050210;28;20169;-66
2022/08/08 10:50:35;;;;;;;4.22;1.63;;;32.70;99.90;;;;;;5050172;28;20169;-66
2022/08/08 10:53:05;;;;;;;7.22;1.55;;;32.80;99.90;;;;;;5051049;28;20249;-66
2022/08/08 10:55:32;;;;;;;7.65;2.20;;;33.00;99.90;;;;;;5052908;28;20196;-66
2022/08/08 10:58:06;;;;;;;10.27;2.03;;;32.40;99.90;;;;;;5054073;28;20192;-66
2022/08/08 11:00:33;;;;;;;5.15;1.80;;;32.10;99.90;;;;;;5054089;28;20165;-66
2022/08/08 11:03:13;;;;;;;9.15;1.90;;;31.70;99.90;;;;;;5053998;28;20173;-66
2022/08/08 11:05:48;;;;;;;6.45;1.92;;;32.20;99.90;;;;;;5052723;28;20162;-66
2022/08/08 11:08:21;;;;;;;6.15;1.83;;;32.50;99.90;;;;;;5053947;28;20260;-66
2022/08/08 11:10:47;;;;;;;6.43;1.70;;;32.20;99.90;;;;;;5053791;28;20269;-66
2022/08/08 11:13:19;;;;;;;5.25;1.70;;;32.90;99.90;;;;;;5053883;28;20300;-65
2022/08/08 11:15:47;;;;;;;6.10;1.67;;;32.80;99.90;;;;;;5053827;28;20176;-65
2022/08/08 11:18:13;;;;;;;8.00;1.58;;;32.60;99.90;;;;;;5053609;28;20169;-65
2022/08/08 11:20:40;;;;;;;7.93;1.60;;;33.10;99.90;;;;;;5053522;28;20259;-65
2022/08/08 11:23:07;;;;;;;6.25;1.95;;;33.90;99.90;;;;;;5053491;28;20619;-66
2022/08/08 11:25:33;;;;;;;5.85;1.55;;;34.10;99.90;;;;;;5053477;28;20160;-66
2022/08/08 11:28:02;;;;;;;3.67;1.40;;;34.10;99.90;;;;;;5053477;28;20257;-66
2022/08/08 11:30:30;;;;;;;5.68;1.65;;;34.00;99.90;;;;;;5053435;28;20689;-66
2022/08/08 11:33:02;;;;;;;6.22;1.80;;;34.50;99.90;;;;;;5052115;28;20303;-66
2022/08/08 11:35:28;;;;;;;9.30;2.00;;;35.20;99.90;;;;;;5053251;28;20168;-66
2022/08/08 11:37:54;;;;;;;7.07;1.60;;;35.60;99.90;;;;;;5053288;28;20307;-66
2022/08/08 11:40:21;;;;;;;4.65;1.70;;;35.40;99.90;;;;;;5053235;28;20664;-66
2022/08/08 11:42:49;;;;;;;10.65;1.80;;;35.10;99.90;;;;;;5053248;28;20172;-66
2022/08/08 11:45:15;;;;;;;5.65;1.50;;;34.80;99.90;;;;;;5053278;28;20716;-66
2022/08/08 11:47:41;;;;;;;4.25;1.40;;;35.60;99.90;;;;;;5053220;28;20299;-66
2022/08/08 11:50:10;;;;;;;5.60;1.48;;;34.40;99.90;;;;;;5053059;28;20177;-65
2022/08/08 11:52:36;;;;;;;9.60;1.92;;;33.80;99.90;;;;;;5052903;28;20671;-66
2022/08/08 11:55:25;;;;;;;4.00;1.65;;;34.20;99.90;;;;;;5053022;28;20173;-66
2022/08/08 11:58:04;;;;;;;2.67;1.38;;;35.30;99.90;;;;;;5053044;28;20173;-66
2022/08/08 12:00:30;;;;;;;4.78;1.73;;;34.70;99.90;;;;;;5053021;28;20168;-66
2022/08/08 12:02:57;;;;;;;6.93;1.77;;;35.30;99.90;;;;;;5052815;28;20212;-66
2022/08/08 12:05:33;;;;;;;4.75;1.58;;;35.60;99.90;;;;;;5052076;28;20176;-66
2022/08/08 12:07:59;;;;;;;5.95;1.50;;;35.70;99.90;;;;;;5052884;28;20188;-65
2022/08/08 12:10:27;;;;;;;9.43;1.77;;;35.60;99.90;;;;;;5052816;28;20211;-66
2022/08/08 12:13:08;;;;;;;6.18;1.35;;;35.50;99.90;;;;;;5052794;28;20280;-66
2022/08/08 12:15:35;;;;;;;4.15;1.33;;;36.00;99.90;;;;;;5052538;28;20176;-65
2022/08/08 12:18:21;;;;;;;2.80;1.48;;;36.40;99.90;;;;;;5052535;28;20222;-66
2022/08/08 12:20:51;;;;;;;3.42;1.45;;;36.90;99.90;;;;;;5052461;28;20218;-64
2022/08/08 12:23:31;;;;;;;9.70;1.58;;;36.30;99.90;;;;;;5052398;28;20204;-66
2022/08/08 12:26:08;;;;;;;5.72;1.70;;;36.10;99.90;;;;;;5052399;28;20261;-64
2022/08/08 12:28:34;;;;;;;5.07;1.40;;;36.20;99.90;;;;;;5052530;28;20255;-66
2022/08/08 12:31:06;;;;;;;5.38;1.50;;;36.20;99.90;;;;;;5052410;28;20264;-66
2022/08/08 12:33:32;;;;;;;3.17;1.48;;;36.40;99.90;;;;;;5052175;28;20176;-66
2022/08/08 12:36:08;;;;;;;3.28;1.70;;;36.40;99.90;;;;;;5052294;28;20598;-65
2022/08/08 12:38:48;;;;;;;4.30;1.48;;;36.60;99.90;;;;;;5052351;28;20173;-66
2022/08/08 12:41:13;;;;;;;3.13;1.58;;;36.50;99.90;;;;;;5051848;28;20573;-66
2022/08/08 12:43:39;;;;;;;5.43;1.70;;;37.00;99.90;;;;;;5052008;28;20652;-66
2022/08/08 12:46:13;;;;;;;5.35;1.75;;;36.90;99.90;;;;;;5051972;28;20180;-66
2022/08/08 12:48:41;;;;;;;4.72;1.50;;;37.00;99.90;;;;;;5051806;28;20191;-66
2022/08/08 12:51:18;;;;;;;5.97;1.52;;;37.30;99.90;;;;;;5051660;28;20165;-66
2022/08/08 12:54:00;;;;;;;6.15;1.80;;;37.50;99.90;;;;;;5051836;28;20172;-67
2022/08/08 12:56:33;;;;;;;4.72;1.70;;;36.80;99.90;;;;;;5051885;28;20172;-66
2022/08/08 12:58:59;;;;;;;5.38;2.05;;;35.50;99.90;;;;;;5051760;28;20191;-66
2022/08/08 13:01:35;;;;;;;6.72;1.80;;;36.00;99.90;;;;;;5050790;28;20264;-66
2022/08/08 13:04:16;;;;;;;7.55;1.80;;;35.40;99.90;;;;;;5050584;28;20187;-66
2022/08/08 13:07:06;;;;;;;3.72;1.50;;;35.80;99.90;;;;;;5052154;28;20168;-66
2022/08/08 13:09:32;;;;;;;7.03;1.98;;;36.20;99.90;;;;;;5050427;28;20225;-67
2022/08/08 13:11:58;;;;;;;6.93;1.70;;;36.60;99.90;;;;;;5051641;28;20586;-66
2022/08/08 13:14:47;;;;;;;5.28;1.77;;;36.20;99.90;;;;;;5050444;28;20176;-66
2022/08/08 13:17:14;;;;;;;8.43;2.13;;;35.90;99.90;;;;;;5051211;28;20561;-66
2022/08/08 13:19:45;;;;;;;5.75;2.00;;;35.20;99.90;;;;;;5051414;28;20167;-66
2022/08/08 13:22:14;;;;;;;6.50;1.63;;;35.60;99.90;;;;;;5051572;28;20250;-66